Surface/Precipitation History
12/19/2014 20:19  to  12/20/2014 20:19
Change End Date:
Date/Time
(MST)
Sf
Temp Chem Water Layer Surface Precipitation
Sf Sub Frz Factor Pct Depth IcePct Cond Salin Type Intens Accum Rate
12/20/2014 20:11 Ice Warning 26.4F 29F 32F 95 0% - 99% 1 mhos 78 None None - -
12/20/2014 20:06 Ice Warning 26.2F 29F 32F 95 0% - 99% 1 mhos 75 None None - -
12/20/2014 19:56 Ice Warning 26.1F 29F 32F 95 0% - 99% 1 mhos 68 None None - -
12/20/2014 19:46 Ice Warning 26.2F 29F 32F 95 0% - 99% 1 mhos 63 None None - -
12/20/2014 19:41 Ice Warning 26.1F 29F 32F 95 0% - 99% 1 mhos 60 None None - -
12/20/2014 19:36 Ice Warning 26.2F 29F 32F 95 0% - 99% 0 mhos 57 None None - -
12/20/2014 19:26 Ice Warning 26.1F 29F 32F 95 0% - 99% 0 mhos 51 None None - -
12/20/2014 19:16 Ice Warning 26.1F 29F 32F 95 0% - 99% 0 mhos 46 None None - -
12/20/2014 19:11 Ice Warning 26.1F 29F 32F 95 0% - 99% 0 mhos 44 None None - -
12/20/2014 19:06 Ice Warning 26.1F 29F 32F 95 0% - 99% 0 mhos 42 None None - -
12/20/2014 18:56 Ice Warning 26.4F 29F 32F 95 0% - 99% 0 mhos 38 None None - -
12/20/2014 18:46 Ice Warning 26.8F 29F 32F 95 0% - 99% 0 mhos 35 None None - -
12/20/2014 18:41 Ice Warning 26.8F 29F 32F 95 0% - 99% 0 mhos 34 None None - -
12/20/2014 18:36 Ice Warning 27.0F 29F 32F 95 0% - 99% 0 mhos 33 None None - -
12/20/2014 18:26 Ice Warning 27.3F 29F 32F 95 0% - 99% 0 mhos 30 None None - -
Date/Time
(MST)
Sf
Temp Chem Water Layer Surface Precipitation
Sf Sub Frz Factor Pct Depth IcePct Cond Salin Type Intens Accum Rate
12/20/2014 18:15 Ice Warning 28.0F 29F 32F 95 0% - 99% 0 mhos 28 None None - -
12/20/2014 18:11 Ice Warning 28.2F 29F 32F 95 0% - 99% 0 mhos 27 None None - -
12/20/2014 18:05 Ice Warning 28.2F 29F 32F 95 0% - 99% 0 mhos 26 None None - -
12/20/2014 17:55 Ice Warning 28.2F 29F 32F 95 0% - 99% 0 mhos 25 None None - -
12/20/2014 17:45 Ice Warning 28.2F 29F 32F 85 0% - 99% 0 mhos 24 None None - -
12/20/2014 17:41 Ice Warning 28.2F 29F 32F 80 0% - 99% 0 mhos 23 None None - -
12/20/2014 17:35 Ice Warning 28.2F 29F 32F 75 0% - 99% 0 mhos 23 None None - -
12/20/2014 17:25 Ice Warning 28.4F 29F 32F 60 0% - 99% 0 mhos 22 None None - -
12/20/2014 17:21 Ice Warning 28.4F 29F 32F 60 0% - 99% 0 mhos 22 None None - -
12/20/2014 17:15 Ice Warning 28.6F 29F 32F 60 0% - 99% 0 mhos 21 None None - -
12/20/2014 17:11 Ice Warning 28.9F 29F 32F 60 0% - 99% 0 mhos 21 None None - -
12/20/2014 17:05 Ice Warning 29.1F 29F 32F 55 0% - 99% 0 mhos 21 None None - -
12/20/2014 16:55 Ice Warning 29.5F 29F 32F 50 0% - 99% 0 mhos 20 None None - -
12/20/2014 16:51 Ice Warning 29.7F 29F 32F 45 0% - 99% 0 mhos 20 None None - -
12/20/2014 16:45 Ice Warning 30.2F 29F 32F 40 0% - 99% 0 mhos 20 None None - -
Date/Time
(MST)
Sf
Temp Chem Water Layer Surface Precipitation
Sf Sub Frz Factor Pct Depth IcePct Cond Salin Type Intens Accum Rate
12/20/2014 16:40 Ice Warning 30.6F 29F 32F 35 0% - 99% 0 mhos 19 None None - -
12/20/2014 16:35 Ice Warning 30.7F 29F 32F 30 0% - 98% 0 mhos 19 None None - -
12/20/2014 16:25 Chemically Wet 31.8F 29F 32F 25 0% - 79% 0 mhos 19 None None - -
12/20/2014 16:21 Wet 32.0F 29F 32F 20 0% 0.00 in 0% 0 mhos 19 None None - -
12/20/2014 16:15 Wet 32.5F 29F 32F 20 0% 0.00 in 0% 0 mhos 18 None None - -
12/20/2014 16:10 Wet 32.7F 29F 32F 15 0% 0.00 in 0% 0 mhos 18 None None - -
12/20/2014 16:05 Wet 33.1F 29F 32F 15 0% 0.00 in 0% 0 mhos 18 None None - -
12/20/2014 15:55 Wet 33.1F 29F 32F 10 0% 0.00 in 0% 0 mhos 18 None None - -
12/20/2014 15:50 Wet 33.4F 29F 32F 5 0% 0.00 in 0% 0 mhos 18 None None - -
12/20/2014 15:45 Wet 32.9F 29F 32F 5 0% 0.00 in 0% 0 mhos 18 None None - -
12/20/2014 15:44 Wet 32.9F 29F 32F 5 0% 0.00 in 0% 0 mhos 18 None None - -
12/20/2014 15:35 Wet 33.1F 29F 32F 5 0% 0.00 in 0% 0 mhos 18 None None - -
12/20/2014 15:25 Wet 33.3F 29F 32F 5 0% 0.00 in 0% 0 mhos 19 None None - -
12/20/2014 15:15 Wet 34.2F 29F 32F 5 0% 0.00 in 0% 0 mhos 19 None None - -
12/20/2014 15:15 Wet 34.3F 29F 32F 5 0% 0.00 in 0% 0 mhos 19 None None - -
Date/Time
(MST)
Sf
Temp Chem Water Layer Surface Precipitation
Sf Sub Frz Factor Pct Depth IcePct Cond Salin Type Intens Accum Rate
12/20/2014 15:05 Wet 35.2F 29F 32F 5 0% 0.00 in 0% 0 mhos 20 None None - -
12/20/2014 14:55 Wet 36.7F 29F 32F 5 0% 0.00 in 0% 0 mhos 22 None None - -
12/20/2014 14:44 Wet 38.3F 29F 32F 5 0% 0.00 in 0% 0 mhos 25 None None - -
12/20/2014 14:41 Wet 39.0F 29F 32F 5 0% 0.00 in 0% 0 mhos 26 None None - -
12/20/2014 14:34 Wet 40.3F 29F 32F 5 0% 0.00 in 0% 0 mhos 29 None None - -
12/20/2014 14:24 Wet 40.5F 29F 32F 5 0% 0.00 in 0% 0 mhos 35 None None - -
12/20/2014 14:14 Wet 39.9F 29F 32F 5 0% 0.00 in 0% 0 mhos 38 None None - -
12/20/2014 14:11 Wet 39.6F 29F 32F 5 0% 0.00 in 0% 0 mhos 39 None None - -
12/20/2014 14:04 Wet 39.9F 29F 32F 5 0% 0.00 in 0% 0 mhos 42 None None - -
12/20/2014 13:54 Wet 40.5F 29F 32F 5 0% 0.00 in 0% 0 mhos 46 None None - -
12/20/2014 13:44 Wet 40.6F 29F 32F 15 0% 0.00 in 0% 1 mhos 50 None None - -
12/20/2014 13:41 Wet 40.8F 29F 32F 35 0% 0.00 in 0% 1 mhos 51 None None - -
12/20/2014 13:34 Wet 40.5F 29F 32F 30 0% 0.00 in 0% 1 mhos 53 None None - -
12/20/2014 13:24 Wet 40.1F 29F 32F 10 0% 0.00 in 0% 1 mhos 57 None None - -
12/20/2014 13:14 Wet 40.1F 29F 32F 5 0% 0.00 in 0% 1 mhos 63 None None - -
Date/Time
(MST)
Sf
Temp Chem Water Layer Surface Precipitation
Sf Sub Frz Factor Pct Depth IcePct Cond Salin Type Intens Accum Rate
12/20/2014 13:11 Wet 40.1F 29F 32F 5 0% 0.00 in 0% 1 mhos 66 None None - -
12/20/2014 13:04 Wet 39.9F 29F 32F 5 0% 0.00 in 0% 1 mhos 72 None None - -
12/20/2014 12:54 Wet 39.6F 29F 32F 5 0% 0.00 in 0% 1 mhos 81 None None - -
12/20/2014 12:44 Wet 39.0F 29F 32F 5 0% 0.00 in 0% 1 mhos 90 None None - -
12/20/2014 12:41 Wet 39.2F 29F 32F 5 0% 0.00 in 0% 1 mhos 93 None None - -
12/20/2014 12:34 Wet 39.9F 29F 32F 5 0% 0.00 in 0% 1 mhos 102 None None - -
12/20/2014 12:24 Wet 39.0F 29F 32F 5 0% 0.00 in 0% 1 mhos 114 None None - -
12/20/2014 12:14 Wet 37.0F 29F 32F 5 0% 0.00 in 0% 1 mhos 125 None None - -
12/20/2014 12:11 Wet 36.7F 29F 32F 5 0% 0.00 in 0% 1 mhos 128 None None - -
12/20/2014 12:04 Wet 36.1F 29F 32F 5 1% 0.00 in 0% 1 mhos 136 None None - -
12/20/2014 11:54 Wet 35.1F 29F 32F 5 1% 0.00 in 0% 1 mhos 150 None None - -
12/20/2014 11:44 Wet 34.5F 29F 32F 5 1% 0.00 in 0% 2 mhos 161 None None - -
12/20/2014 11:41 Wet 34.2F 29F 32F 5 1% 0.00 in 0% 2 mhos 163 None None - -
12/20/2014 11:34 Wet 33.8F 29F 32F 5 1% 0.00 in 0% 2 mhos 171 None None - -
12/20/2014 11:24 Wet 33.1F 29F 32F 5 1% 0.00 in 0% 2 mhos 180 None None - -
Date/Time
(MST)
Sf
Temp Chem Water Layer Surface Precipitation
Sf Sub Frz Factor Pct Depth IcePct Cond Salin Type Intens Accum Rate
12/20/2014 11:14 Wet 32.5F 29F 32F 5 1% 0.00 in 0% 2 mhos 190 None None - -
12/20/2014 11:11 Wet 32.5F 29F 32F 5 1% 0.00 in 0% 2 mhos 192 Yes - - -
12/20/2014 11:04 Wet 32.2F 29F 32F 5 1% 0.00 in 0% 2 mhos 193 None None - -
12/20/2014 10:53 Chemically Wet 30.7F 29F 32F 5 1% - 83% 2 mhos 201 None None - -
12/20/2014 10:51 Chemically Wet 30.7F 29F 32F 5 1% - 83% 2 mhos 201 None None - -
12/20/2014 10:43 Ice Warning 29.8F 29F 32F 5 1% - 90% 2 mhos 206 None None - -
12/20/2014 10:33 Ice Warning 28.6F 29F 32F 10 1% - 94% 2 mhos 212 None None - -
12/20/2014 10:26 Ice Warning 28.0F 29F 32F 20 1% - 95% 2 mhos 214 None None - -
12/20/2014 10:23 Ice Warning 27.5F 29F 32F 20 1% - 95% 2 mhos 215 None None - -
12/20/2014 10:13 Ice Warning 26.8F 29F 32F 25 1% - 96% 2 mhos 213 None None - -
12/20/2014 10:11 Ice Warning 26.8F 29F 32F 25 1% - 96% 2 mhos 211 None None - -
12/20/2014 10:03 Ice Warning 26.1F 29F 32F 25 1% - 96% 2 mhos 215 None None - -
12/20/2014 09:53 Ice Warning 25.3F 29F 32F 30 1% - 97% 2 mhos 220 None None - -
12/20/2014 09:51 Ice Warning 25.3F 29F 32F 30 1% - 97% 2 mhos 217 None None - -
12/20/2014 09:43 Ice Warning 25.0F 29F 32F 30 1% - 97% 2 mhos 221 None None - -
Date/Time
(MST)
Sf
Temp Chem Water Layer Surface Precipitation
Sf Sub Frz Factor Pct Depth IcePct Cond Salin Type Intens Accum Rate
12/20/2014 09:41 Ice Warning 25.0F 29F 32F 30 1% - 97% 2 mhos 221 None None - -
12/20/2014 09:33 Ice Warning 24.8F 29F 32F 35 1% - 97% 2 mhos 224 None None - -
12/20/2014 09:23 Ice Warning 24.6F 29F 32F 35 1% - 97% 2 mhos 229 Yes - - -
12/20/2014 09:21 Ice Warning 24.3F 29F 32F 40 1% - 97% 2 mhos 228 None None - -
12/20/2014 09:13 Ice Warning 23.9F 29F 32F 40 1% - 97% 2 mhos 231 None None - -
12/20/2014 09:11 Ice Warning 23.9F 29F 32F 40 1% - 97% 2 mhos 231 None None - -
12/20/2014 09:03 Ice Warning 24.1F 29F 32F 40 1% - 97% 2 mhos 233 None None - -
12/20/2014 08:53 Ice Warning 23.7F 29F 32F 45 1% - 97% 2 mhos 237 None None - -
12/20/2014 08:51 Ice Warning 23.5F 29F 32F 45 1% - 97% 2 mhos 237 None None - -
12/20/2014 08:43 Ice Warning 23.4F 29F 32F 55 1% - 97% 2 mhos 240 None None - -
12/20/2014 08:40 Ice Warning 23.0F 29F 32F 55 1% - 97% 2 mhos 239 None None - -
12/20/2014 08:33 Ice Warning 22.8F 29F 32F 60 1% - 97% 2 mhos 242 None None - -
12/20/2014 08:23 Ice Warning 22.6F 29F 32F 55 1% - 97% 2 mhos 243 None None - -
12/20/2014 08:21 Ice Warning 22.6F 29F 32F 55 1% - 97% 2 mhos 243 None None - -
12/20/2014 08:13 Ice Warning 22.8F 29F 32F 55 1% - 97% 2 mhos 242 None None - -
Date/Time
(MST)
Sf
Temp Chem Water Layer Surface Precipitation
Sf Sub Frz Factor Pct Depth IcePct Cond Salin Type Intens Accum Rate
12/20/2014 08:11 Ice Warning 22.8F 29F 32F 55 1% - 97% 2 mhos 242 None None - -
12/20/2014 08:03 Ice Warning 22.8F 29F 32F 55 1% - 97% 2 mhos 247 None None - -
12/20/2014 07:53 Ice Warning 22.5F 29F 32F 60 1% - 97% 2 mhos 249 None None - -
12/20/2014 07:43 Ice Warning 22.5F 29F 32F 55 1% - 97% 2 mhos 252 None None - -
12/20/2014 07:41 Ice Warning 22.5F 29F 32F 55 1% - 97% 2 mhos 251 None None - -
12/20/2014 07:33 Ice Warning 22.5F 29F 32F 55 1% - 97% 2 mhos 254 None None - -
12/20/2014 07:23 Ice Warning 22.3F 29F 32F 55 1% - 97% 2 mhos 258 None None - -
12/20/2014 07:13 Ice Warning 22.3F 29F 32F 55 1% - 97% 2 mhos 261 None None - -
12/20/2014 07:11 Ice Warning 22.3F 29F 32F 55 1% - 97% 2 mhos 261 None None - -
12/20/2014 07:03 Ice Warning 22.5F 29F 32F 60 1% - 97% 2 mhos 266 None None - -
12/20/2014 06:52 Ice Warning 22.6F 29F 32F 60 1% - 97% 2 mhos 269 None None - -
12/20/2014 06:42 Ice Warning 22.3F 29F 32F 70 1% - 97% 2 mhos 273 None None - -
12/20/2014 06:41 Ice Warning 22.5F 29F 32F 70 1% - 97% 2 mhos 275 None None - -
12/20/2014 06:32 Ice Warning 22.8F 29F 32F 80 1% - 97% 2 mhos 277 None None - -
12/20/2014 06:22 Ice Warning 23.4F 29F 32F 85 1% - 97% 2 mhos 275 None None - -
Date/Time
(MST)
Sf
Temp Chem Water Layer Surface Precipitation
Sf Sub Frz Factor Pct Depth IcePct Cond Salin Type Intens Accum Rate
12/20/2014 06:21 Ice Warning 23.4F 29F 32F 85 1% - 97% 2 mhos 278 None None - -
12/20/2014 06:12 Ice Warning 23.4F 29F 32F 85 1% - 97% 2 mhos 282 None None - -
12/20/2014 06:11 Ice Warning 23.0F 29F 32F 85 1% - 97% 2 mhos 283 None None - -
12/20/2014 06:02 Ice Warning 23.2F 29F 32F 90 1% - 97% 2 mhos 286 None None - -
12/20/2014 05:52 Ice Warning 23.4F 29F 32F 95 1% - 97% 2 mhos 289 None None - -
12/20/2014 05:51 Ice Warning 23.4F 29F 32F 95 1% - 97% 2 mhos 285 None None - -
12/20/2014 05:42 Ice Warning 23.4F 29F 32F 95 1% - 97% 2 mhos 289 None None - -
12/20/2014 05:41 Ice Warning 23.5F 29F 32F 95 1% - 97% 2 mhos 292 None None - -
12/20/2014 05:32 Ice Warning 23.5F 29F 32F 95 1% - 97% 2 mhos 292 None None - -
12/20/2014 05:22 Ice Warning 23.0F 29F 32F 95 1% - 97% 2 mhos 294 None None - -
12/20/2014 05:12 Ice Warning 22.8F 29F 32F 95 1% - 97% 2 mhos 295 None None - -
12/20/2014 05:11 Ice Warning 22.6F 29F 32F 95 1% - 97% 2 mhos 299 None None - -
12/20/2014 05:02 Ice Warning 22.8F 29F 32F 95 1% - 97% 2 mhos 299 None None - -
12/20/2014 04:52 Ice Warning 23.2F 29F 32F 95 1% - 97% 2 mhos 297 None None - -
12/20/2014 04:42 Ice Warning 23.4F 29F 32F 95 1% - 97% 2 mhos 296 None None - -
Date/Time
(MST)
Sf
Temp Chem Water Layer Surface Precipitation
Sf Sub Frz Factor Pct Depth IcePct Cond Salin Type Intens Accum Rate
12/20/2014 04:41 Ice Warning 23.5F 29F 32F 90 1% - 97% 2 mhos 296 None None - -
12/20/2014 04:32 Ice Warning 23.5F 29F 32F 90 1% - 97% 2 mhos 296 None None - -
12/20/2014 04:22 Ice Warning 23.2F 29F 32F 85 1% - 97% 3 mhos 305 None None - -
12/20/2014 04:12 Ice Warning 23.0F 29F 32F 75 1% - 97% 3 mhos 306 None None - -
12/20/2014 04:11 Ice Warning 23.0F 29F 32F 70 1% - 97% 3 mhos 306 None None - -
12/20/2014 04:02 Ice Warning 24.1F 29F 32F 70 1% - 96% 3 mhos 327 None None - -
12/20/2014 03:52 Ice Warning 23.9F 29F 32F 80 1% - 96% 3 mhos 336 None None - -
12/20/2014 03:42 Ice Warning 24.3F 29F 32F 80 1% - 96% 3 mhos 344 None None - -
12/20/2014 03:41 Ice Warning 24.4F 29F 32F 80 1% - 96% 3 mhos 344 None None - -
12/20/2014 03:32 Ice Warning 25.0F 29F 32F 80 1% - 95% 3 mhos 355 None None - -
12/20/2014 03:22 Ice Warning 25.0F 29F 32F 90 1% - 95% 3 mhos 365 None None - -
12/20/2014 03:12 Ice Warning 24.8F 29F 32F 95 1% - 95% 3 mhos 373 None None - -
12/20/2014 03:11 Ice Warning 24.8F 29F 32F 95 1% - 95% 3 mhos 374 None None - -
12/20/2014 03:02 Ice Warning 24.8F 29F 32F 95 1% - 95% 3 mhos 386 None None - -
12/20/2014 02:52 Ice Warning 25.0F 29F 32F 95 2% - 95% 3 mhos 393 None None - -
Date/Time
(MST)
Sf
Temp Chem Water Layer Surface Precipitation
Sf Sub Frz Factor Pct Depth IcePct Cond Salin Type Intens Accum Rate
12/20/2014 02:41 Ice Warning 24.8F 29F 32F 95 2% - 95% 3 mhos 405 None None - -
12/20/2014 02:41 Ice Warning 24.8F 29F 32F 95 2% - 95% 3 mhos 405 None None - -
12/20/2014 02:31 Ice Warning 25.0F 29F 32F 95 2% - 94% 3 mhos 409 None None - -
12/20/2014 02:21 Ice Warning 25.0F 29F 32F 95 2% - 94% 3 mhos 411 None None - -
12/20/2014 02:17 Ice Warning 25.2F 29F 32F 95 2% - 94% 3 mhos 411 None None - -
12/20/2014 02:11 Ice Warning 25.3F 29F 32F 95 2% - 94% 4 mhos 414 None None - -
12/20/2014 02:01 Ice Warning 25.0F 29F 31F 95 2% - 94% 4 mhos 436 None None - -
12/20/2014 01:51 Ice Warning 25.3F 29F 31F 95 2% - 94% 4 mhos 439 None None - -
12/20/2014 01:41 Ice Warning 26.1F 29F 31F 95 2% - 93% 4 mhos 439 None None - -
12/20/2014 01:41 Ice Warning 26.1F 29F 31F 95 2% - 93% 4 mhos 439 None None - -
12/20/2014 01:31 Ice Warning 26.6F 29F 31F 95 2% - 92% 4 mhos 440 None None - -
12/20/2014 01:21 Ice Warning 27.0F 29F 31F 95 2% - 91% 4 mhos 442 None None - -
12/20/2014 01:21 Ice Warning 27.0F 29F 31F 95 2% - 91% 4 mhos 442 None None - -
12/20/2014 01:11 Ice Warning 27.1F 29F 31F 95 2% - 91% 4 mhos 446 None None - -
12/20/2014 01:11 Ice Warning 27.1F 29F 31F 95 2% - 91% 4 mhos 446 None None - -
Date/Time
(MST)
Sf
Temp Chem Water Layer Surface Precipitation
Sf Sub Frz Factor Pct Depth IcePct Cond Salin Type Intens Accum Rate
12/20/2014 01:01 Ice Warning 27.1F 29F 31F 95 2% - 91% 4 mhos 449 None None - -
12/20/2014 00:51 Ice Warning 26.6F 29F 31F 95 2% - 92% 4 mhos 453 None None - -
12/20/2014 00:51 Ice Warning 26.6F 29F 31F 95 2% - 92% 4 mhos 453 None None - -
12/20/2014 00:41 Ice Warning 26.2F 29F 31F 95 2% - 92% 4 mhos 452 None None - -
12/20/2014 00:41 Ice Warning 26.2F 29F 31F 95 2% - 92% 4 mhos 452 None None - -
12/20/2014 00:31 Ice Warning 25.5F 29F 31F 95 2% - 93% 4 mhos 452 None None - -
12/20/2014 00:21 Ice Warning 25.2F 29F 31F 95 2% - 94% 4 mhos 452 None None - -
12/20/2014 00:21 Ice Warning 25.2F 29F 31F 95 2% - 94% 4 mhos 452 None None - -
12/20/2014 00:11 Ice Warning 25.0F 29F 31F 95 2% - 94% 4 mhos 453 None None - -
12/20/2014 00:01 Ice Warning 25.3F 29F 31F 95 2% - 93% 4 mhos 452 None None - -
12/19/2014 23:51 Ice Warning 25.3F 29F 31F 95 2% - 93% 4 mhos 452 None None - -
12/19/2014 23:41 Ice Warning 25.7F 29F 31F 95 2% - 93% 4 mhos 451 None None - -
12/19/2014 23:41 Ice Warning 25.7F 29F 31F 95 2% - 93% 4 mhos 451 None None - -
12/19/2014 23:31 Ice Warning 26.4F 29F 31F 95 2% - 92% 4 mhos 446 None None - -
12/19/2014 23:21 Ice Warning 26.8F 29F 31F 95 2% - 92% 4 mhos 447 None None - -
Date/Time
(MST)
Sf
Temp Chem Water Layer Surface Precipitation
Sf Sub Frz Factor Pct Depth IcePct Cond Salin Type Intens Accum Rate
12/19/2014 23:11 Ice Warning 26.8F 29F 31F 95 2% - 92% 4 mhos 447 None None - -
12/19/2014 23:11 Ice Warning 26.8F 29F 31F 95 2% - 92% 4 mhos 447 None None - -
12/19/2014 23:01 Ice Warning 26.8F 29F 31F 95 2% - 92% 4 mhos 447 None None - -
12/19/2014 22:51 Ice Warning 27.1F 29F 31F 95 2% - 91% 4 mhos 447 None None - -
12/19/2014 22:41 Ice Warning 27.1F 29F 31F 95 2% - 91% 4 mhos 448 None None - -
12/19/2014 22:41 Ice Warning 27.1F 29F 31F 95 2% - 91% 4 mhos 448 None None - -
12/19/2014 22:31 Ice Warning 26.8F 29F 31F 95 2% - 92% 4 mhos 449 None None - -
12/19/2014 22:20 Ice Warning 26.6F 29F 31F 95 2% - 92% 4 mhos 449 None None - -
12/19/2014 22:15 Ice Warning 26.8F 29F 31F 95 2% - 92% 4 mhos 449 None None - -
12/19/2014 22:10 Ice Warning 27.1F 29F 31F 95 2% - 91% 4 mhos 448 None None - -
12/19/2014 22:00 Ice Warning 26.8F 29F 31F 95 2% - 91% 4 mhos 450 None None - -
12/19/2014 21:50 Ice Warning 26.8F 29F 31F 95 2% - 92% 4 mhos 452 None None - -
12/19/2014 21:43 Ice Warning 26.1F 29F 31F 95 2% - 92% 4 mhos 454 None None - -
12/19/2014 21:40 Ice Warning 26.1F 29F 31F 95 2% - 92% 4 mhos 454 None None - -
12/19/2014 21:30 Ice Warning 27.0F 29F 31F 95 2% - 91% 4 mhos 452 None None - -
Date/Time
(MST)
Sf
Temp Chem Water Layer Surface Precipitation
Sf Sub Frz Factor Pct Depth IcePct Cond Salin Type Intens Accum Rate
12/19/2014 21:20 Ice Warning 27.1F 29F 31F 95 2% - 91% 4 mhos 451 None None - -
12/19/2014 21:12 Ice Warning 27.7F 29F 31F 95 2% - 90% 4 mhos 450 None None - -
12/19/2014 21:10 Ice Warning 27.7F 29F 31F 95 2% - 90% 4 mhos 450 None None - -
12/19/2014 21:00 Ice Warning 27.7F 29F 31F 95 2% - 90% 4 mhos 449 None None - -
12/19/2014 20:50 Ice Warning 28.0F 29F 31F 95 2% - 89% 4 mhos 446 None None - -
12/19/2014 20:44 Ice Warning 28.0F 29F 31F 95 2% - 89% 4 mhos 446 None None - -
12/19/2014 20:40 Ice Warning 28.0F 29F 31F 95 2% - 89% 4 mhos 445 None None - -
12/19/2014 20:30 Ice Warning 28.4F 29F 31F 95 2% - 88% 4 mhos 441 None None - -
12/19/2014 20:20 Ice Warning 28.6F 29F 31F 95 2% - 87% 4 mhos 440 None None - -
Change End Date:
Copyright © 1998-2005 Surface Systems, Inc.
All Rights Reserved
Send comments about the data to:
SCAN Web ® is a registered trademark of Surface Systems, Inc.
SCAN Web Version 5.6